sensor_id;sensor_type;location;lat;lon;timestamp;pressure;altitude;pressure_sealevel;temperature;humidity
68141;BME280;54941;52.220;104.306;2023-07-09T00:02:11;95260.03;;;25.93;44.43
68141;BME280;54941;52.220;104.306;2023-07-09T00:04:37;95260.81;;;26.03;43.81
68141;BME280;54941;52.220;104.306;2023-07-09T00:07:08;95258.34;;;26.45;43.00
68141;BME280;54941;52.220;104.306;2023-07-09T00:09:37;95261.91;;;26.10;43.97
68141;BME280;54941;52.220;104.306;2023-07-09T00:12:05;95259.91;;;26.48;43.13
68141;BME280;54941;52.220;104.306;2023-07-09T00:14:33;95261.59;;;26.49;43.28
68141;BME280;54941;52.220;104.306;2023-07-09T00:16:59;95258.75;;;25.97;43.68
68141;BME280;54941;52.220;104.306;2023-07-09T00:19:26;95256.81;;;26.07;43.48
68141;BME280;54941;52.220;104.306;2023-07-09T00:21:52;95266.94;;;25.87;44.44
68141;BME280;54941;52.220;104.306;2023-07-09T00:24:20;95265.84;;;26.16;44.78
68141;BME280;54941;52.220;104.306;2023-07-09T00:26:46;95265.72;;;26.79;42.64
68141;BME280;54941;52.220;104.306;2023-07-09T00:29:13;95269.88;;;26.30;43.89
68141;BME280;54941;52.220;104.306;2023-07-09T00:31:40;95268.34;;;26.45;43.66
68141;BME280;54941;52.220;104.306;2023-07-09T00:34:06;95272.81;;;26.54;43.90
68141;BME280;54941;52.220;104.306;2023-07-09T00:36:32;95267.50;;;26.44;43.76
68141;BME280;54941;52.220;104.306;2023-07-09T00:38:59;95266.63;;;25.73;45.94
68141;BME280;54941;52.220;104.306;2023-07-09T00:41:35;95274.44;;;26.11;46.67
68141;BME280;54941;52.220;104.306;2023-07-09T00:44:21;95275.41;;;25.75;46.30
68141;BME280;54941;52.220;104.306;2023-07-09T00:47:22;95272.09;;;27.56;42.94
68141;BME280;54941;52.220;104.306;2023-07-09T00:49:58;95286.16;;;26.73;44.85
68141;BME280;54941;52.220;104.306;2023-07-09T00:52:30;95286.81;;;25.41;47.40
68141;BME280;54941;52.220;104.306;2023-07-09T00:54:59;95287.41;;;25.35;49.10
68141;BME280;54941;52.220;104.306;2023-07-09T00:57:29;95293.50;;;25.00;50.78
68141;BME280;54941;52.220;104.306;2023-07-09T00:59:59;95283.78;;;24.70;51.31
68141;BME280;54941;52.220;104.306;2023-07-09T01:02:31;95283.59;;;24.91;52.14
68141;BME280;54941;52.220;104.306;2023-07-09T01:04:59;95285.66;;;26.34;47.40
68141;BME280;54941;52.220;104.306;2023-07-09T01:07:27;95277.16;;;28.01;43.75
68141;BME280;54941;52.220;104.306;2023-07-09T01:09:54;95266.22;;;28.68;41.65
68141;BME280;54941;52.220;104.306;2023-07-09T01:12:21;95263.78;;;29.77;39.29
68141;BME280;54941;52.220;104.306;2023-07-09T01:14:53;95266.22;;;28.92;39.64
68141;BME280;54941;52.220;104.306;2023-07-09T01:17:21;95253.78;;;29.70;39.06
68141;BME280;54941;52.220;104.306;2023-07-09T01:19:50;95256.91;;;29.89;38.85
68141;BME280;54941;52.220;104.306;2023-07-09T01:22:20;95244.66;;;30.62;37.54
68141;BME280;54941;52.220;104.306;2023-07-09T01:24:55;95248.72;;;29.58;36.81
68141;BME280;54941;52.220;104.306;2023-07-09T01:27:24;95247.09;;;30.11;36.54
68141;BME280;54941;52.220;104.306;2023-07-09T01:29:50;95250.06;;;30.47;36.99
68141;BME280;54941;52.220;104.306;2023-07-09T01:32:17;95247.63;;;30.30;37.03
68141;BME280;54941;52.220;104.306;2023-07-09T01:34:46;95257.06;;;28.53;40.51
68141;BME280;54941;52.220;104.306;2023-07-09T01:37:13;95253.69;;;27.33;43.60
68141;BME280;54941;52.220;104.306;2023-07-09T01:39:40;95257.09;;;26.58;46.24
68141;BME280;54941;52.220;104.306;2023-07-09T01:42:08;95259.91;;;25.49;49.07
68141;BME280;54941;52.220;104.306;2023-07-09T01:44:34;95259.59;;;25.52;48.75
68141;BME280;54941;52.220;104.306;2023-07-09T01:47:01;95257.47;;;25.19;50.99
68141;BME280;54941;52.220;104.306;2023-07-09T01:49:27;95264.19;;;25.15;51.21
68141;BME280;54941;52.220;104.306;2023-07-09T01:51:54;95267.19;;;25.39;50.40
68141;BME280;54941;52.220;104.306;2023-07-09T01:54:20;95265.28;;;25.77;50.05
68141;BME280;54941;52.220;104.306;2023-07-09T01:56:48;95264.84;;;24.89;51.45
68141;BME280;54941;52.220;104.306;2023-07-09T01:59:14;95264.84;;;24.89;52.21
68141;BME280;54941;52.220;104.306;2023-07-09T02:01:41;95254.53;;;24.56;53.22
68141;BME280;54941;52.220;104.306;2023-07-09T02:04:07;95250.28;;;24.05;54.07
68141;BME280;54941;52.220;104.306;2023-07-09T02:06:33;95254.06;;;23.54;55.57
68141;BME280;54941;52.220;104.306;2023-07-09T02:09:00;95242.75;;;23.79;55.31
68141;BME280;54941;52.220;104.306;2023-07-09T02:11:26;95254.00;;;23.35;57.08
68141;BME280;54941;52.220;104.306;2023-07-09T02:13:56;95256.97;;;23.32;57.22
68141;BME280;54941;52.220;104.306;2023-07-09T02:16:23;95255.44;;;23.48;57.04
68141;BME280;54941;52.220;104.306;2023-07-09T02:18:49;95257.69;;;24.03;56.09
68141;BME280;54941;52.220;104.306;2023-07-09T02:21:22;95262.44;;;23.61;57.22
68141;BME280;54941;52.220;104.306;2023-07-09T02:23:48;95261.81;;;23.38;57.96
68141;BME280;54941;52.220;104.306;2023-07-09T02:26:14;95258.38;;;23.95;56.88
68141;BME280;54941;52.220;104.306;2023-07-09T02:28:40;95252.97;;;24.05;56.96
68141;BME280;54941;52.220;104.306;2023-07-09T02:31:08;95248.84;;;23.72;57.85
68141;BME280;54941;52.220;104.306;2023-07-09T02:33:34;95247.44;;;23.68;56.97
68141;BME280;54941;52.220;104.306;2023-07-09T02:36:03;95235.59;;;23.49;58.17
68141;BME280;54941;52.220;104.306;2023-07-09T02:38:29;95243.91;;;23.86;57.30
68141;BME280;54941;52.220;104.306;2023-07-09T02:40:56;95245.03;;;23.74;57.41
68141;BME280;54941;52.220;104.306;2023-07-09T02:43:22;95243.47;;;24.01;57.10
68141;BME280;54941;52.220;104.306;2023-07-09T02:45:48;95238.50;;;24.44;55.88
68141;BME280;54941;52.220;104.306;2023-07-09T02:48:16;95244.47;;;23.80;55.61
68141;BME280;54941;52.220;104.306;2023-07-09T02:50:42;95236.78;;;24.05;57.06
68141;BME280;54941;52.220;104.306;2023-07-09T02:53:09;95237.94;;;24.12;55.47
68141;BME280;54941;52.220;104.306;2023-07-09T02:55:35;95234.22;;;24.42;55.10
68141;BME280;54941;52.220;104.306;2023-07-09T02:58:01;95237.19;;;24.58;54.29
68141;BME280;54941;52.220;104.306;2023-07-09T03:00:27;95235.41;;;25.51;52.39
68141;BME280;54941;52.220;104.306;2023-07-09T03:02:54;95229.69;;;26.61;49.48
68141;BME280;54941;52.220;104.306;2023-07-09T03:05:21;95227.34;;;26.92;47.58
68141;BME280;54941;52.220;104.306;2023-07-09T03:07:48;95225.50;;;26.05;50.54
68141;BME280;54941;52.220;104.306;2023-07-09T03:10:14;95221.50;;;27.04;49.21
68141;BME280;54941;52.220;104.306;2023-07-09T03:12:41;95221.97;;;27.00;48.58
68141;BME280;54941;52.220;104.306;2023-07-09T03:15:07;95211.28;;;27.24;47.75
68141;BME280;54941;52.220;104.306;2023-07-09T03:17:34;95220.16;;;26.74;49.05
68141;BME280;54941;52.220;104.306;2023-07-09T03:20:00;95217.00;;;28.30;45.88
68141;BME280;54941;52.220;104.306;2023-07-09T03:22:28;95221.56;;;26.61;48.23
68141;BME280;54941;52.220;104.306;2023-07-09T03:24:54;95213.72;;;26.32;49.74
68141;BME280;54941;52.220;104.306;2023-07-09T03:27:20;95216.84;;;26.97;47.76
68141;BME280;54941;52.220;104.306;2023-07-09T03:29:47;95212.00;;;26.31;50.72
68141;BME280;54941;52.220;104.306;2023-07-09T03:32:13;95221.25;;;25.84;51.59
68141;BME280;54941;52.220;104.306;2023-07-09T03:34:39;95221.47;;;25.18;53.29
68141;BME280;54941;52.220;104.306;2023-07-09T03:37:06;95222.16;;;24.93;54.45
68141;BME280;54941;52.220;104.306;2023-07-09T03:39:33;95223.75;;;24.76;54.63
68141;BME280;54941;52.220;104.306;2023-07-09T03:42:00;95218.66;;;25.10;53.93
68141;BME280;54941;52.220;104.306;2023-07-09T03:44:26;95219.22;;;25.41;54.54
68141;BME280;54941;52.220;104.306;2023-07-09T03:46:52;95217.56;;;25.30;54.39
68141;BME280;54941;52.220;104.306;2023-07-09T03:49:19;95209.94;;;25.89;53.38
68141;BME280;54941;52.220;104.306;2023-07-09T03:51:45;95205.66;;;25.51;55.26
68141;BME280;54941;52.220;104.306;2023-07-09T03:54:11;95207.47;;;25.33;55.63
68141;BME280;54941;52.220;104.306;2023-07-09T03:56:39;95198.34;;;25.06;57.30
68141;BME280;54941;52.220;104.306;2023-07-09T03:59:05;95191.88;;;24.89;58.03
68141;BME280;54941;52.220;104.306;2023-07-09T04:01:31;95188.75;;;25.21;57.27
68141;BME280;54941;52.220;104.306;2023-07-09T04:03:58;95187.41;;;24.61;58.69
68141;BME280;54941;52.220;104.306;2023-07-09T04:06:26;95189.59;;;24.28;60.38
68141;BME280;54941;52.220;104.306;2023-07-09T04:08:53;95185.09;;;24.76;59.22
68141;BME280;54941;52.220;104.306;2023-07-09T04:11:19;95182.44;;;24.66;59.60
68141;BME280;54941;52.220;104.306;2023-07-09T04:13:49;95184.72;;;24.61;60.44
68141;BME280;54941;52.220;104.306;2023-07-09T04:16:15;95183.22;;;24.39;61.94
68141;BME280;54941;52.220;104.306;2023-07-09T04:18:41;95187.94;;;24.08;63.91
68141;BME280;54941;52.220;104.306;2023-07-09T04:21:08;95199.03;;;23.76;66.44
68141;BME280;54941;52.220;104.306;2023-07-09T04:23:34;95200.09;;;23.35;68.51
68141;BME280;54941;52.220;104.306;2023-07-09T04:26:01;95206.38;;;22.64;71.19
68141;BME280;54941;52.220;104.306;2023-07-09T04:28:27;95203.16;;;22.70;71.57
68141;BME280;54941;52.220;104.306;2023-07-09T04:30:57;95198.00;;;22.67;72.55
68141;BME280;54941;52.220;104.306;2023-07-09T04:33:23;95195.53;;;22.55;74.56
68141;BME280;54941;52.220;104.306;2023-07-09T04:35:50;95191.38;;;22.20;75.31
68141;BME280;54941;52.220;104.306;2023-07-09T04:38:18;95189.63;;;22.09;75.51
68141;BME280;54941;52.220;104.306;2023-07-09T04:40:44;95185.53;;;21.94;74.14
68141;BME280;54941;52.220;104.306;2023-07-09T04:43:14;95178.59;;;21.92;74.69
68141;BME280;54941;52.220;104.306;2023-07-09T04:45:41;95179.16;;;21.95;72.57
68141;BME280;54941;52.220;104.306;2023-07-09T04:48:08;95180.41;;;22.33;72.23
68141;BME280;54941;52.220;104.306;2023-07-09T04:50:35;95177.09;;;22.20;71.87
68141;BME280;54941;52.220;104.306;2023-07-09T04:53:01;95179.38;;;22.55;72.57
68141;BME280;54941;52.220;104.306;2023-07-09T04:55:28;95178.22;;;22.78;70.01
68141;BME280;54941;52.220;104.306;2023-07-09T04:57:55;95176.59;;;22.66;70.40
68141;BME280;54941;52.220;104.306;2023-07-09T05:00:21;95174.91;;;22.95;70.29
68141;BME280;54941;52.220;104.306;2023-07-09T05:02:48;95173.03;;;23.55;69.97
68141;BME280;54941;52.220;104.306;2023-07-09T05:05:16;95167.78;;;24.31;67.73
68141;BME280;54941;52.220;104.306;2023-07-09T05:07:42;95169.03;;;24.74;65.13
68141;BME280;54941;52.220;104.306;2023-07-09T05:10:09;95169.59;;;24.78;65.13
68141;BME280;54941;52.220;104.306;2023-07-09T05:12:35;95163.28;;;25.42;63.14
68141;BME280;54941;52.220;104.306;2023-07-09T05:15:02;95163.25;;;25.87;57.66
68141;BME280;54941;52.220;104.306;2023-07-09T05:17:31;95167.16;;;26.10;55.35
68141;BME280;54941;52.220;104.306;2023-07-09T05:19:57;95158.06;;;25.94;56.37
68141;BME280;54941;52.220;104.306;2023-07-09T05:22:25;95157.13;;;26.03;58.84
68141;BME280;54941;52.220;104.306;2023-07-09T05:24:51;95152.78;;;25.92;56.26
68141;BME280;54941;52.220;104.306;2023-07-09T05:27:17;95166.44;;;26.44;55.39
68141;BME280;54941;52.220;104.306;2023-07-09T05:29:44;95165.09;;;26.48;54.64
68141;BME280;54941;52.220;104.306;2023-07-09T05:32:13;95157.78;;;26.23;53.30
68141;BME280;54941;52.220;104.306;2023-07-09T05:34:39;95156.00;;;26.13;53.39
68141;BME280;54941;52.220;104.306;2023-07-09T05:37:05;95163.81;;;25.27;57.51
68141;BME280;54941;52.220;104.306;2023-07-09T05:39:33;95155.72;;;26.16;52.09
68141;BME280;54941;52.220;104.306;2023-07-09T05:42:00;95162.38;;;26.04;52.37
68141;BME280;54941;52.220;104.306;2023-07-09T05:44:26;95161.25;;;26.33;52.85
68141;BME280;54941;52.220;104.306;2023-07-09T05:46:52;95158.16;;;25.84;54.94
68141;BME280;54941;52.220;104.306;2023-07-09T05:49:19;95155.00;;;25.25;55.34
68141;BME280;54941;52.220;104.306;2023-07-09T05:51:45;95154.47;;;25.40;56.04
68141;BME280;54941;52.220;104.306;2023-07-09T05:54:11;95149.25;;;25.11;55.94
68141;BME280;54941;52.220;104.306;2023-07-09T05:56:40;95158.09;;;25.13;57.16
68141;BME280;54941;52.220;104.306;2023-07-09T05:59:06;95153.72;;;25.02;56.88
68141;BME280;54941;52.220;104.306;2023-07-09T06:01:33;95161.84;;;25.02;60.26
68141;BME280;54941;52.220;104.306;2023-07-09T06:03:59;95151.47;;;25.25;58.90
68141;BME280;54941;52.220;104.306;2023-07-09T06:06:26;95159.47;;;25.17;59.80
68141;BME280;54941;52.220;104.306;2023-07-09T06:08:53;95154.47;;;24.85;60.49
68141;BME280;54941;52.220;104.306;2023-07-09T06:11:19;95159.50;;;24.80;59.36
68141;BME280;54941;52.220;104.306;2023-07-09T06:13:48;95150.94;;;24.84;60.41
68141;BME280;54941;52.220;104.306;2023-07-09T06:16:15;95157.28;;;24.93;60.46
68141;BME280;54941;52.220;104.306;2023-07-09T06:18:41;95156.59;;;24.91;61.10
68141;BME280;54941;52.220;104.306;2023-07-09T06:21:07;95156.66;;;24.25;66.05
68141;BME280;54941;52.220;104.306;2023-07-09T06:23:33;95149.59;;;24.33;66.97
68141;BME280;54941;52.220;104.306;2023-07-09T06:26:00;95151.72;;;24.20;66.58
68141;BME280;54941;52.220;104.306;2023-07-09T06:28:27;95150.75;;;23.92;68.75
68141;BME280;54941;52.220;104.306;2023-07-09T06:30:55;95152.88;;;23.98;69.92
68141;BME280;54941;52.220;104.306;2023-07-09T06:33:22;95152.88;;;23.98;72.00
68141;BME280;54941;52.220;104.306;2023-07-09T06:35:50;95151.06;;;23.89;71.57
68141;BME280;54941;52.220;104.306;2023-07-09T06:38:17;95160.59;;;23.74;71.43
68141;BME280;54941;52.220;104.306;2023-07-09T06:40:44;95159.16;;;23.89;72.37
68141;BME280;54941;52.220;104.306;2023-07-09T06:43:13;95164.09;;;23.94;71.87
68141;BME280;54941;52.220;104.306;2023-07-09T06:45:48;95177.16;;;23.60;72.30
68141;BME280;54941;52.220;104.306;2023-07-09T06:48:16;95175.13;;;23.33;74.15
68141;BME280;54941;52.220;104.306;2023-07-09T06:50:42;95187.69;;;23.03;72.28
68141;BME280;54941;52.220;104.306;2023-07-09T06:53:09;95198.75;;;22.79;68.40
68141;BME280;54941;52.220;104.306;2023-07-09T06:55:35;95207.09;;;22.46;69.02
68141;BME280;54941;52.220;104.306;2023-07-09T06:58:01;95206.88;;;22.28;69.71
68141;BME280;54941;52.220;104.306;2023-07-09T07:00:28;95211.56;;;21.94;70.62
68141;BME280;54941;52.220;104.306;2023-07-09T07:02:54;95206.88;;;21.75;69.57
68141;BME280;54941;52.220;104.306;2023-07-09T07:08:03;95225.97;;;21.29;72.09
68141;BME280;54941;52.220;104.306;2023-07-09T07:10:32;95225.50;;;21.35;71.62
68141;BME280;54941;52.220;104.306;2023-07-09T07:12:59;95221.47;;;21.29;71.14
68141;BME280;54941;52.220;104.306;2023-07-09T07:15:25;95213.69;;;20.81;72.55
68141;BME280;54941;52.220;104.306;2023-07-09T07:17:52;95213.09;;;20.89;72.45
68141;BME280;54941;52.220;104.306;2023-07-09T07:20:18;95208.94;;;20.96;72.19
68141;BME280;54941;52.220;104.306;2023-07-09T07:22:45;95211.84;;;21.04;72.33
68141;BME280;54941;52.220;104.306;2023-07-09T07:25:14;95206.81;;;21.22;71.30
68141;BME280;54941;52.220;104.306;2023-07-09T07:27:40;95204.50;;;21.61;72.02
68141;BME280;54941;52.220;104.306;2023-07-09T07:30:08;95206.81;;;21.33;70.24
68141;BME280;54941;52.220;104.306;2023-07-09T07:32:36;95197.25;;;21.72;70.68
68141;BME280;54941;52.220;104.306;2023-07-09T07:35:02;95203.25;;;21.65;68.79
68141;BME280;54941;52.220;104.306;2023-07-09T07:37:29;95205.66;;;21.79;70.42
68141;BME280;54941;52.220;104.306;2023-07-09T07:39:56;95199.81;;;22.06;68.46
68141;BME280;54941;52.220;104.306;2023-07-09T07:42:23;95195.66;;;22.23;69.00
68141;BME280;54941;52.220;104.306;2023-07-09T07:44:50;95187.13;;;22.38;67.36
68141;BME280;54941;52.220;104.306;2023-07-09T07:47:16;95187.41;;;22.76;66.89
68141;BME280;54941;52.220;104.306;2023-07-09T07:49:42;95184.72;;;22.76;66.43
68141;BME280;54941;52.220;104.306;2023-07-09T07:52:08;95174.09;;;22.74;65.89
68141;BME280;54941;52.220;104.306;2023-07-09T07:54:35;95169.88;;;22.81;65.89
68141;BME280;54941;52.220;104.306;2023-07-09T07:57:01;95166.97;;;22.63;65.29
68141;BME280;54941;52.220;104.306;2023-07-09T07:59:30;95152.25;;;23.08;64.49
68141;BME280;54941;52.220;104.306;2023-07-09T08:01:56;95152.28;;;23.17;66.25
68141;BME280;54941;52.220;104.306;2023-07-09T08:04:22;95137.66;;;23.10;63.65
68141;BME280;54941;52.220;104.306;2023-07-09T08:06:48;95143.47;;;23.15;65.74
68141;BME280;54941;52.220;104.306;2023-07-09T08:09:15;95130.59;;;23.28;63.36
68141;BME280;54941;52.220;104.306;2023-07-09T08:11:42;95130.88;;;23.45;63.75
68141;BME280;54941;52.220;104.306;2023-07-09T08:14:09;95125.59;;;23.14;64.14
68141;BME280;54941;52.220;104.306;2023-07-09T08:16:37;95125.19;;;23.38;64.15
68141;BME280;54941;52.220;104.306;2023-07-09T08:19:03;95124.22;;;23.29;63.66
68141;BME280;54941;52.220;104.306;2023-07-09T08:21:29;95126.94;;;23.68;62.35
68141;BME280;54941;52.220;104.306;2023-07-09T08:23:55;95129.47;;;23.41;62.50
68141;BME280;54941;52.220;104.306;2023-07-09T08:26:22;95123.25;;;23.69;61.91
68141;BME280;54941;52.220;104.306;2023-07-09T08:28:48;95126.09;;;23.58;63.46
68141;BME280;54941;52.220;104.306;2023-07-09T08:31:14;95129.19;;;23.53;62.59
68141;BME280;54941;52.220;104.306;2023-07-09T08:33:42;95127.22;;;23.75;59.78
68141;BME280;54941;52.220;104.306;2023-07-09T08:36:09;95130.19;;;23.72;61.02
68141;BME280;54941;52.220;104.306;2023-07-09T08:38:35;95146.22;;;23.54;61.58
68141;BME280;54941;52.220;104.306;2023-07-09T08:41:08;95144.09;;;23.67;61.92
68141;BME280;54941;52.220;104.306;2023-07-09T08:43:39;95150.81;;;24.39;59.45
68141;BME280;54941;52.220;104.306;2023-07-09T08:46:17;95146.81;;;23.67;59.96
68141;BME280;54941;52.220;104.306;2023-07-09T08:48:48;95148.63;;;23.28;61.33
68141;BME280;54941;52.220;104.306;2023-07-09T08:51:21;95154.97;;;22.77;63.20
68141;BME280;54941;52.220;104.306;2023-07-09T08:53:51;95158.97;;;22.83;61.87
68141;BME280;54941;52.220;104.306;2023-07-09T08:56:20;95158.31;;;22.29;63.17
68141;BME280;54941;52.220;104.306;2023-07-09T08:58:49;95156.56;;;22.19;63.49
68141;BME280;54941;52.220;104.306;2023-07-09T09:01:19;95150.59;;;22.46;62.52
68141;BME280;54941;52.220;104.306;2023-07-09T09:03:49;95160.78;;;22.11;64.14
68141;BME280;54941;52.220;104.306;2023-07-09T09:06:19;95163.25;;;22.55;61.61
68141;BME280;54941;52.220;104.306;2023-07-09T09:08:53;95164.94;;;21.83;64.10
68141;BME280;54941;52.220;104.306;2023-07-09T09:11:25;95164.94;;;22.46;62.49
68141;BME280;54941;52.220;104.306;2023-07-09T09:14:00;95172.53;;;22.71;61.23
68141;BME280;54941;52.220;104.306;2023-07-09T09:16:30;95173.16;;;22.24;62.48
68141;BME280;54941;52.220;104.306;2023-07-09T09:19:00;95178.00;;;22.30;62.02
68141;BME280;54941;52.220;104.306;2023-07-09T09:21:32;95174.59;;;22.28;62.60
68141;BME280;54941;52.220;104.306;2023-07-09T09:24:14;95166.88;;;22.44;61.45
68141;BME280;54941;52.220;104.306;2023-07-09T09:26:42;95173.03;;;22.25;63.04
68141;BME280;54941;52.220;104.306;2023-07-09T09:29:12;95172.72;;;22.49;62.35
68141;BME280;54941;52.220;104.306;2023-07-09T09:31:39;95173.88;;;22.26;63.41
68141;BME280;54941;52.220;104.306;2023-07-09T09:34:17;95174.72;;;22.26;63.44
68141;BME280;54941;52.220;104.306;2023-07-09T09:36:43;95184.94;;;22.84;61.63
68141;BME280;54941;52.220;104.306;2023-07-09T09:39:10;95181.81;;;22.27;64.06
68141;BME280;54941;52.220;104.306;2023-07-09T09:41:37;95189.16;;;22.04;64.77
68141;BME280;54941;52.220;104.306;2023-07-09T09:44:04;95185.13;;;21.99;65.39
68141;BME280;54941;52.220;104.306;2023-07-09T09:46:32;95188.50;;;22.33;64.51
68141;BME280;54941;52.220;104.306;2023-07-09T09:48:59;95193.94;;;22.22;63.98
68141;BME280;54941;52.220;104.306;2023-07-09T09:51:40;95188.75;;;22.30;64.22
68141;BME280;54941;52.220;104.306;2023-07-09T09:54:16;95183.56;;;22.38;62.81
68141;BME280;54941;52.220;104.306;2023-07-09T09:56:44;95183.28;;;22.41;63.00
68141;BME280;54941;52.220;104.306;2023-07-09T09:59:18;95186.19;;;22.49;63.79
68141;BME280;54941;52.220;104.306;2023-07-09T10:01:45;95188.47;;;22.54;62.80
68141;BME280;54941;52.220;104.306;2023-07-09T10:04:17;95185.63;;;22.55;63.10
68141;BME280;54941;52.220;104.306;2023-07-09T10:06:48;95182.66;;;22.28;63.59
68141;BME280;54941;52.220;104.306;2023-07-09T10:09:26;95179.31;;;22.35;63.95
68141;BME280;54941;52.220;104.306;2023-07-09T10:11:58;95171.25;;;22.15;64.21
68141;BME280;54941;52.220;104.306;2023-07-09T10:14:37;95174.19;;;22.32;64.43
68141;BME280;54941;52.220;104.306;2023-07-09T10:17:17;95177.63;;;22.34;63.81
68141;BME280;54941;52.220;104.306;2023-07-09T10:19:55;95168.84;;;22.42;64.19
68141;BME280;54941;52.220;104.306;2023-07-09T10:22:40;95168.84;;;22.42;65.29
68141;BME280;54941;52.220;104.306;2023-07-09T10:25:20;95175.69;;;22.46;64.49
68141;BME280;54941;52.220;104.306;2023-07-09T10:28:10;95175.38;;;22.19;66.91
68141;BME280;54941;52.220;104.306;2023-07-09T10:30:47;95170.19;;;21.85;66.04
68141;BME280;54941;52.220;104.306;2023-07-09T10:33:22;95179.72;;;22.10;66.14
68141;BME280;54941;52.220;104.306;2023-07-09T10:35:57;95179.31;;;22.35;65.03
68141;BME280;54941;52.220;104.306;2023-07-09T10:38:45;95176.56;;;22.56;64.11
68141;BME280;54941;52.220;104.306;2023-07-09T10:41:15;95173.81;;;22.16;64.73
68141;BME280;54941;52.220;104.306;2023-07-09T10:43:46;95175.25;;;22.20;64.90
68141;BME280;54941;52.220;104.306;2023-07-09T10:49:36;95169.97;;;21.98;65.35
68141;BME280;54941;52.220;104.306;2023-07-09T10:52:06;95167.91;;;22.01;64.93
68141;BME280;54941;52.220;104.306;2023-07-09T10:54:41;95164.28;;;22.33;63.77
68141;BME280;54941;52.220;104.306;2023-07-09T10:57:12;95158.09;;;22.42;63.60
68141;BME280;54941;52.220;104.306;2023-07-09T10:59:41;95170.41;;;22.45;63.85
68141;BME280;54941;52.220;104.306;2023-07-09T11:02:18;95168.88;;;22.00;65.82
68141;BME280;54941;52.220;104.306;2023-07-09T11:04:48;95164.34;;;22.22;64.86
68141;BME280;54941;52.220;104.306;2023-07-09T11:07:22;95168.38;;;22.06;65.50
68141;BME280;54941;52.220;104.306;2023-07-09T11:09:52;95164.88;;;21.95;66.14
68141;BME280;54941;52.220;104.306;2023-07-09T11:12:24;95165.78;;;21.84;67.12
68141;BME280;54941;52.220;104.306;2023-07-09T11:14:55;95169.19;;;21.86;66.52
68141;BME280;54941;52.220;104.306;2023-07-09T11:17:25;95173.91;;;21.73;67.54
68141;BME280;54941;52.220;104.306;2023-07-09T11:19:55;95171.41;;;21.60;67.90
68141;BME280;54941;52.220;104.306;2023-07-09T11:22:23;95179.34;;;21.62;67.96
68141;BME280;54941;52.220;104.306;2023-07-09T11:24:52;95184.22;;;21.36;69.68
68141;BME280;54941;52.220;104.306;2023-07-09T11:27:21;95170.56;;;21.27;69.19
68141;BME280;54941;52.220;104.306;2023-07-09T11:29:56;95170.56;;;21.27;68.61
68141;BME280;54941;52.220;104.306;2023-07-09T11:32:25;95169.44;;;21.30;68.50
68141;BME280;54941;52.220;104.306;2023-07-09T11:34:52;95161.59;;;21.38;69.85
68141;BME280;54941;52.220;104.306;2023-07-09T11:37:24;95168.47;;;21.31;70.14
68141;BME280;54941;52.220;104.306;2023-07-09T11:39:53;95178.38;;;21.19;68.69
68141;BME280;54941;52.220;104.306;2023-07-09T11:42:31;95172.88;;;21.21;70.62
68141;BME280;54941;52.220;104.306;2023-07-09T11:45:02;95182.38;;;21.25;69.66
68141;BME280;54941;52.220;104.306;2023-07-09T11:47:32;95182.69;;;21.00;70.17
68141;BME280;54941;52.220;104.306;2023-07-09T11:50:02;95178.75;;;21.04;70.48
68141;BME280;54941;52.220;104.306;2023-07-09T11:52:34;95175.94;;;21.05;70.77
68141;BME280;54941;52.220;104.306;2023-07-09T11:55:19;95175.47;;;21.00;71.71
68141;BME280;54941;52.220;104.306;2023-07-09T11:57:53;95179.91;;;20.79;71.49
68141;BME280;54941;52.220;104.306;2023-07-09T12:00:19;95193.66;;;21.08;70.71
68141;BME280;54941;52.220;104.306;2023-07-09T12:02:46;95199.25;;;21.16;70.27
68141;BME280;54941;52.220;104.306;2023-07-09T12:05:12;95200.91;;;20.85;71.39
68141;BME280;54941;52.220;104.306;2023-07-09T12:07:41;95199.41;;;21.03;70.44
68141;BME280;54941;52.220;104.306;2023-07-09T12:10:20;95196.63;;;20.60;71.92
68141;BME280;54941;52.220;104.306;2023-07-09T12:12:47;95201.25;;;20.47;72.33
68141;BME280;54941;52.220;104.306;2023-07-09T12:15:18;95203.09;;;20.46;72.86
68141;BME280;54941;52.220;104.306;2023-07-09T12:17:53;95208.25;;;20.49;72.75
68141;BME280;54941;52.220;104.306;2023-07-09T12:20:22;95222.72;;;20.47;72.37
68141;BME280;54941;52.220;104.306;2023-07-09T12:22:48;95228.91;;;20.36;73.03
68141;BME280;54941;52.220;104.306;2023-07-09T12:25:22;95245.63;;;20.28;73.59
68141;BME280;54941;52.220;104.306;2023-07-09T12:27:49;95252.16;;;20.24;74.09
68141;BME280;54941;52.220;104.306;2023-07-09T12:30:16;95259.97;;;20.16;74.42
68141;BME280;54941;52.220;104.306;2023-07-09T12:32:46;95254.94;;;20.11;73.99
68141;BME280;54941;52.220;104.306;2023-07-09T12:35:14;95268.34;;;20.11;74.05
68141;BME280;54941;52.220;104.306;2023-07-09T12:37:42;95262.84;;;20.02;74.27
68141;BME280;54941;52.220;104.306;2023-07-09T12:40:14;95272.25;;;20.07;74.43
68141;BME280;54941;52.220;104.306;2023-07-09T12:42:44;95271.59;;;19.93;74.50
68141;BME280;54941;52.220;104.306;2023-07-09T12:45:15;95265.38;;;19.92;74.61
68141;BME280;54941;52.220;104.306;2023-07-09T12:47:42;95262.47;;;19.95;74.08
68141;BME280;54941;52.220;104.306;2023-07-09T12:50:20;95258.53;;;19.88;74.38
68141;BME280;54941;52.220;104.306;2023-07-09T12:52:47;95258.16;;;19.81;74.55
68141;BME280;54941;52.220;104.306;2023-07-09T12:55:21;95257.69;;;19.88;74.42